Time;durP1;ratioP1;P1;durP2;ratioP2;P2;SDS_P1;SDS_P2;PMS_P1;PMS_P2;Temp;Humidity;BMP_temperature;BMP_pressure;BME280_temperature;BME280_humidity;BME280_pressure;Samples;Min_cycle;Max_cycle;Signal;HPM_P1;HPM_P2
2022/02/07 00:00:44;;;;;;;0.50;0.50;;;3.40;99.90;;;;;;4945617;28;20095;-47
2022/02/07 00:05:43;;;;;;;0.50;0.50;;;2.90;99.90;;;;;;4942687;28;20034;-47
2022/02/07 00:08:11;;;;;;;0.57;0.57;;;2.80;99.90;;;;;;4942053;28;20035;-49
2022/02/07 00:10:39;;;;;;;0.50;0.50;;;2.80;99.90;;;;;;4957417;28;20779;-48
2022/02/07 00:13:06;;;;;;;0.50;0.50;;;2.70;99.90;;;;;;4940903;28;20031;-47
2022/02/07 00:15:31;;;;;;;0.60;0.60;;;2.50;99.90;;;;;;4945263;28;20114;-47
2022/02/07 00:17:57;;;;;;;0.50;0.50;;;2.50;99.90;;;;;;4944832;28;20210;-48
2022/02/07 00:20:24;;;;;;;0.52;0.52;;;2.40;99.90;;;;;;4946318;28;20814;-48
2022/02/07 00:22:51;;;;;;;0.60;0.60;;;2.30;99.90;;;;;;4944305;28;20031;-47
2022/02/07 00:25:19;;;;;;;0.60;0.60;;;2.40;99.90;;;;;;4944454;28;20611;-48
2022/02/07 00:27:45;;;;;;;0.50;0.50;;;2.40;99.90;;;;;;4944190;28;20059;-47
2022/02/07 00:30:13;;;;;;;0.50;0.50;;;2.30;99.90;;;;;;4944170;28;20039;-47
2022/02/07 00:32:39;;;;;;;0.57;0.57;;;2.40;99.90;;;;;;4947237;28;20444;-47
2022/02/07 00:35:08;;;;;;;0.50;0.50;;;2.40;99.90;;;;;;4945680;28;20035;-47
2022/02/07 00:37:35;;;;;;;0.50;0.50;;;2.30;99.90;;;;;;4944599;28;20090;-47
2022/02/07 00:40:48;;;;;;;0.50;0.50;;;2.30;99.90;;;;;;4946465;28;20090;-50
2022/02/07 00:48:00;;;;;;;0.50;0.50;;;2.20;99.90;;;;;;4947928;28;20078;-47
2022/02/07 00:50:27;;;;;;;0.70;0.70;;;2.10;99.90;;;;;;4943301;28;20058;-48
2022/02/07 00:52:53;;;;;;;0.52;0.52;;;2.00;99.90;;;;;;4944572;28;20054;-47
2022/02/07 00:55:21;;;;;;;0.50;0.50;;;2.10;99.90;;;;;;4947332;28;20374;-48
2022/02/07 00:57:47;;;;;;;;;;;2.00;99.90;;;;;;4944708;28;20035;-48
2022/02/07 01:00:13;;;;;;;0.50;0.50;;;2.10;99.90;;;;;;4946395;28;19910;-47
2022/02/07 01:02:39;;;;;;;0.50;0.50;;;2.00;99.90;;;;;;4946985;28;20187;-48
2022/02/07 01:05:05;;;;;;;0.50;0.50;;;2.00;99.90;;;;;;4946746;28;20047;-47
2022/02/07 01:07:31;;;;;;;0.50;0.50;;;2.00;99.90;;;;;;4945562;28;20038;-48
2022/02/07 01:09:58;;;;;;;0.60;0.60;;;1.90;99.90;;;;;;4944192;28;20031;-48
2022/02/07 01:15:45;;;;;;;0.52;0.52;;;1.90;99.90;;;;;;4947889;28;20123;-47
2022/02/07 01:20:50;;;;;;;0.60;0.60;;;1.90;99.90;;;;;;4950507;28;20355;-49
2022/02/07 01:24:01;;;;;;;0.65;0.65;;;1.90;99.90;;;;;;4948020;28;20130;-48
2022/02/07 01:48:13;;;;;;;1.45;0.70;;;1.90;99.90;;;;;;4946379;28;20090;-46
2022/02/07 01:51:05;;;;;;;0.70;0.70;;;1.90;99.90;;;;;;4947089;28;20505;-47
2022/02/07 01:53:43;;;;;;;0.60;0.60;;;1.90;99.90;;;;;;4942391;28;20118;-48
2022/02/07 01:56:09;;;;;;;0.70;0.70;;;1.90;99.90;;;;;;4945243;28;20086;-48
2022/02/07 01:58:35;;;;;;;0.60;0.60;;;1.90;99.90;;;;;;4942342;28;20031;-48
2022/02/07 02:01:01;;;;;;;0.75;0.75;;;1.90;99.90;;;;;;4944741;28;20039;-48
2022/02/07 02:03:26;;;;;;;0.60;0.60;;;1.90;99.90;;;;;;4944346;28;20401;-48
2022/02/07 02:05:53;;;;;;;0.70;0.70;;;1.90;99.90;;;;;;4946066;28;20035;-48
2022/02/07 02:08:19;;;;;;;0.60;0.60;;;1.90;99.90;;;;;;4944716;28;20027;-48
2022/02/07 02:10:49;;;;;;;0.60;0.60;;;1.90;99.90;;;;;;4944783;28;20684;-48
2022/02/07 02:13:26;;;;;;;0.60;0.60;;;1.90;99.90;;;;;;4942291;28;20039;-48
2022/02/07 02:16:01;;;;;;;0.60;0.60;;;1.90;99.90;;;;;;4944922;28;20421;-48
2022/02/07 02:34:52;;;;;;;0.60;0.60;;;1.90;99.90;;;;;;4942103;28;20068;-47
2022/02/07 02:37:27;;;;;;;0.70;0.70;;;1.90;99.90;;;;;;4947092;28;20509;-47
2022/02/07 02:45:43;;;;;;;0.90;0.90;;;1.90;99.90;;;;;;4921854;29;20095;-47
2022/02/07 02:48:19;;;;;;;0.70;0.70;;;1.90;99.90;;;;;;4932630;28;20039;-47
2022/02/07 02:50:48;;;;;;;0.60;0.60;;;1.90;99.90;;;;;;4942141;28;20039;-47
2022/02/07 02:53:16;;;;;;;0.60;0.60;;;1.90;99.90;;;;;;4942706;28;20051;-47
2022/02/07 02:55:44;;;;;;;0.60;0.60;;;1.90;99.90;;;;;;4949307;28;20055;-47
2022/02/07 02:58:15;;;;;;;0.70;0.70;;;2.00;99.90;;;;;;4944801;28;20400;-47
2022/02/07 03:00:42;;;;;;;0.60;0.60;;;1.90;99.90;;;;;;4944109;28;20397;-47
2022/02/07 03:03:08;;;;;;;0.63;0.63;;;1.90;99.90;;;;;;4942192;28;20531;-47
2022/02/07 03:05:34;;;;;;;0.60;0.60;;;1.90;99.90;;;;;;4941197;28;20047;-47
2022/02/07 03:07:59;;;;;;;0.70;0.70;;;1.90;99.90;;;;;;4942497;28;20063;-48
2022/02/07 03:10:58;;;;;;;0.75;0.75;;;1.90;99.90;;;;;;4946095;28;20050;-48
2022/02/07 03:18:48;;;;;;;0.77;0.65;;;1.90;99.90;;;;;;4948232;28;20091;-47
2022/02/07 03:21:14;;;;;;;0.70;0.70;;;1.90;99.90;;;;;;4949206;28;20125;-47
2022/02/07 03:23:40;;;;;;;1.65;0.70;;;2.00;99.90;;;;;;4947463;28;20088;-50
2022/02/07 03:26:05;;;;;;;0.80;0.80;;;2.00;99.90;;;;;;4947536;28;20412;-47
2022/02/07 03:28:31;;;;;;;1.35;0.77;;;2.00;99.90;;;;;;4948192;28;20035;-49
2022/02/07 03:30:56;;;;;;;0.60;0.60;;;2.00;99.90;;;;;;4945944;28;20043;-49
2022/02/07 03:33:23;;;;;;;1.75;0.77;;;2.00;99.90;;;;;;4945492;28;20031;-47
2022/02/07 03:35:49;;;;;;;2.13;0.85;;;2.00;99.90;;;;;;4948761;28;20055;-47
2022/02/07 03:38:15;;;;;;;2.58;0.85;;;2.00;99.90;;;;;;4947195;28;20557;-49
2022/02/07 03:40:41;;;;;;;0.60;0.60;;;2.00;99.90;;;;;;4948328;28;20034;-47
2022/02/07 03:43:06;;;;;;;0.60;0.60;;;2.00;99.90;;;;;;4948340;28;20050;-47
2022/02/07 03:45:32;;;;;;;0.82;0.82;;;2.00;99.90;;;;;;4951880;28;20038;-47
2022/02/07 03:47:58;;;;;;;0.63;0.63;;;1.90;99.90;;;;;;4945868;28;20045;-47
2022/02/07 03:50:23;;;;;;;1.50;0.70;;;1.90;99.90;;;;;;4946619;28;20043;-49
2022/02/07 03:52:52;;;;;;;0.82;0.82;;;1.90;99.90;;;;;;4945469;28;20757;-49
2022/02/07 03:55:18;;;;;;;0.70;0.70;;;1.90;99.90;;;;;;4944577;28;20031;-49
2022/02/07 03:57:44;;;;;;;0.63;0.63;;;1.90;99.90;;;;;;4946201;28;20384;-46
2022/02/07 04:00:15;;;;;;;1.52;0.70;;;1.90;99.90;;;;;;4944100;28;20039;-47
2022/02/07 04:02:42;;;;;;;0.70;0.70;;;1.90;99.90;;;;;;4949521;28;20054;-49
2022/02/07 04:07:53;;;;;;;1.20;0.85;;;1.90;99.90;;;;;;4949380;28;22016;-47
2022/02/07 04:10:19;;;;;;;0.63;0.63;;;1.90;99.90;;;;;;4943309;28;20397;-48
2022/02/07 04:12:51;;;;;;;0.90;0.90;;;1.90;99.90;;;;;;4947621;28;20427;-48
2022/02/07 04:15:19;;;;;;;1.00;1.00;;;1.90;99.90;;;;;;4943986;28;20035;-47
2022/02/07 04:17:51;;;;;;;2.90;1.02;;;1.90;99.90;;;;;;4946594;28;20027;-48
2022/02/07 04:20:18;;;;;;;0.88;0.88;;;1.90;99.90;;;;;;4945636;28;20139;-47
2022/02/07 04:22:44;;;;;;;1.05;0.80;;;1.90;99.90;;;;;;4946245;28;20036;-47
2022/02/07 04:25:10;;;;;;;3.30;1.08;;;1.90;99.90;;;;;;4947880;28;22528;-48
2022/02/07 04:27:36;;;;;;;0.93;0.93;;;1.90;99.90;;;;;;4946237;28;20053;-47
2022/02/07 04:30:04;;;;;;;0.80;0.80;;;1.90;99.90;;;;;;4946145;28;20038;-49
2022/02/07 04:32:30;;;;;;;2.17;1.10;;;2.00;99.90;;;;;;4948179;28;20133;-49
2022/02/07 04:34:55;;;;;;;0.82;0.80;;;1.90;99.90;;;;;;4945539;28;20122;-47
2022/02/07 04:37:21;;;;;;;0.80;0.80;;;2.00;99.90;;;;;;4947335;28;20077;-49
2022/02/07 04:39:47;;;;;;;1.60;0.90;;;2.00;99.90;;;;;;4948557;28;20031;-46
2022/02/07 04:42:13;;;;;;;1.60;1.20;;;1.90;99.90;;;;;;4944777;28;20035;-47
2022/02/07 04:45:05;;;;;;;3.00;1.00;;;1.90;99.90;;;;;;4947266;28;20118;-47
2022/02/07 04:56:14;;;;;;;0.80;0.80;;;1.90;99.90;;;;;;4944477;28;20097;-48
2022/02/07 05:01:52;;;;;;;0.88;0.88;;;2.00;99.90;;;;;;4950441;28;20523;-47
2022/02/07 05:04:02;;;;;;;0.80;0.80;;;1.90;99.90;;;;;;4947767;28;20039;-48
2022/02/07 05:14:44;;;;;;;2.03;1.40;;;2.00;99.90;;;;;;4947324;28;20681;-48
2022/02/07 05:17:12;;;;;;;2.63;1.30;;;2.00;99.90;;;;;;4946404;28;20461;-48
2022/02/07 05:19:38;;;;;;;0.90;0.90;;;2.00;99.90;;;;;;4946846;28;20846;-47
2022/02/07 05:22:04;;;;;;;1.02;1.00;;;2.00;99.90;;;;;;4946120;28;20039;-48
2022/02/07 05:24:30;;;;;;;2.58;1.23;;;2.00;99.90;;;;;;4946376;28;20054;-51
2022/02/07 05:26:55;;;;;;;2.30;1.00;;;2.00;99.90;;;;;;4947753;28;20102;-48
2022/02/07 05:29:21;;;;;;;0.95;0.95;;;2.00;99.90;;;;;;4945906;28;20034;-48
2022/02/07 05:31:47;;;;;;;2.08;0.90;;;2.00;99.90;;;;;;4943730;28;20043;-48
2022/02/07 05:34:13;;;;;;;1.05;0.95;;;2.00;99.90;;;;;;4943230;28;20023;-48
2022/02/07 05:36:43;;;;;;;1.40;1.30;;;1.90;99.90;;;;;;4945018;28;20095;-48
2022/02/07 05:39:16;;;;;;;1.27;1.00;;;1.90;99.90;;;;;;4943923;28;20027;-48
2022/02/07 05:41:42;;;;;;;1.10;1.10;;;2.00;99.90;;;;;;4944294;28;20484;-48
2022/02/07 05:44:08;;;;;;;1.00;1.00;;;2.00;99.90;;;;;;4944939;28;20393;-49
2022/02/07 05:46:33;;;;;;;0.85;0.85;;;1.90;99.90;;;;;;4945677;28;20030;-49
2022/02/07 05:48:59;;;;;;;1.13;1.00;;;2.00;99.90;;;;;;4942828;28;20395;-48
2022/02/07 05:51:25;;;;;;;3.80;1.00;;;2.00;99.90;;;;;;4945074;28;20900;-48
2022/02/07 05:53:50;;;;;;;1.38;1.27;;;2.00;99.90;;;;;;4944758;28;20035;-48
2022/02/07 05:56:16;;;;;;;1.00;1.00;;;1.90;99.90;;;;;;4942400;28;20036;-48
2022/02/07 05:58:42;;;;;;;1.27;0.90;;;1.90;99.90;;;;;;4943065;28;20031;-48
2022/02/07 06:01:08;;;;;;;0.90;0.90;;;1.80;99.90;;;;;;4943146;28;20044;-50
2022/02/07 06:03:33;;;;;;;1.17;0.95;;;1.80;99.90;;;;;;4942426;28;20067;-48
2022/02/07 06:06:01;;;;;;;1.13;0.93;;;1.80;99.90;;;;;;4945019;28;20066;-48
2022/02/07 06:08:26;;;;;;;1.23;1.15;;;1.80;99.90;;;;;;4947208;28;20452;-50
2022/02/07 06:10:52;;;;;;;3.03;1.00;;;1.80;99.90;;;;;;4943086;28;20437;-48
2022/02/07 06:13:19;;;;;;;1.23;1.17;;;1.80;99.90;;;;;;4945214;28;20027;-48
2022/02/07 06:15:45;;;;;;;1.58;1.10;;;1.80;99.90;;;;;;4941208;28;20114;-48
2022/02/07 06:18:14;;;;;;;1.40;1.10;;;1.80;99.90;;;;;;4946426;28;20023;-48
2022/02/07 06:20:40;;;;;;;1.17;1.08;;;1.80;99.90;;;;;;4942691;28;20028;-48
2022/02/07 06:23:05;;;;;;;2.08;0.90;;;1.80;99.90;;;;;;4944843;28;20046;-48
2022/02/07 06:25:31;;;;;;;1.00;1.00;;;1.80;99.90;;;;;;4943892;28;20035;-48
2022/02/07 06:27:57;;;;;;;1.52;1.42;;;1.80;99.90;;;;;;4946504;28;20515;-49
2022/02/07 06:30:22;;;;;;;2.78;1.13;;;1.80;99.90;;;;;;4942833;28;21980;-47
2022/02/07 06:32:48;;;;;;;1.25;1.08;;;1.80;99.90;;;;;;4943593;28;20027;-48
2022/02/07 06:35:15;;;;;;;3.20;1.20;;;1.80;99.90;;;;;;4944352;28;20031;-48
2022/02/07 06:37:41;;;;;;;2.65;1.08;;;1.70;99.90;;;;;;4944738;28;20026;-48
2022/02/07 06:40:07;;;;;;;3.83;1.08;;;1.70;99.90;;;;;;4947959;28;20031;-48
2022/02/07 06:42:33;;;;;;;1.65;0.80;;;1.70;99.90;;;;;;4944406;28;20035;-48
2022/02/07 06:44:59;;;;;;;3.40;1.08;;;1.70;99.90;;;;;;4945447;28;20034;-48
2022/02/07 06:47:25;;;;;;;2.50;0.95;;;1.70;99.90;;;;;;4945661;28;20059;-49
2022/02/07 06:49:50;;;;;;;0.93;0.93;;;1.70;99.90;;;;;;4946678;28;20062;-48
2022/02/07 06:52:16;;;;;;;1.02;1.02;;;1.60;99.90;;;;;;4948085;28;20039;-48
2022/02/07 06:54:42;;;;;;;1.95;1.45;;;1.70;99.90;;;;;;4954788;28;20098;-49
2022/02/07 06:57:07;;;;;;;3.67;1.20;;;1.60;99.90;;;;;;4948537;28;20028;-50
2022/02/07 06:59:39;;;;;;;2.10;1.40;;;1.60;99.90;;;;;;4955459;28;20038;-49
2022/02/07 07:02:06;;;;;;;3.03;1.10;;;1.60;99.90;;;;;;4947211;28;20164;-48
2022/02/07 07:04:31;;;;;;;1.30;1.20;;;1.50;99.90;;;;;;4947006;28;20133;-48
2022/02/07 07:06:57;;;;;;;1.50;1.30;;;1.60;99.90;;;;;;4950098;28;20029;-48
2022/02/07 07:09:23;;;;;;;2.08;1.05;;;1.50;99.90;;;;;;4941624;28;20106;-48
2022/02/07 07:11:48;;;;;;;3.30;1.10;;;1.50;99.90;;;;;;4945255;28;20447;-48
2022/02/07 07:16:50;;;;;;;2.17;1.17;;;1.50;99.90;;;;;;4946571;28;20039;-48
2022/02/07 07:19:17;;;;;;;1.85;0.93;;;1.50;99.90;;;;;;4949685;28;20063;-49
2022/02/07 07:21:43;;;;;;;2.15;1.40;;;1.50;99.90;;;;;;4943646;28;20038;-48
2022/02/07 07:24:09;;;;;;;1.55;1.25;;;1.50;99.90;;;;;;4945655;28;20035;-48
2022/02/07 07:26:36;;;;;;;1.70;1.38;;;1.50;99.90;;;;;;4946710;28;20392;-48
2022/02/07 07:29:07;;;;;;;2.63;1.00;;;1.50;99.90;;;;;;4939824;28;20115;-48
2022/02/07 07:31:39;;;;;;;1.20;1.13;;;1.50;99.90;;;;;;4948997;28;20037;-48
2022/02/07 07:34:04;;;;;;;1.52;1.35;;;1.50;99.90;;;;;;4948294;28;20087;-49
2022/02/07 07:36:30;;;;;;;4.80;1.95;;;1.50;99.90;;;;;;4948712;28;20035;-48
2022/02/07 07:38:56;;;;;;;1.67;1.50;;;1.40;99.90;;;;;;4943357;28;20031;-48
2022/02/07 07:41:21;;;;;;;1.63;1.30;;;1.40;99.90;;;;;;4946574;28;20098;-48
2022/02/07 07:43:49;;;;;;;3.47;1.48;;;1.50;99.90;;;;;;4946566;28;20465;-48
2022/02/07 07:46:18;;;;;;;1.63;1.30;;;1.50;99.90;;;;;;4946661;28;20038;-48
2022/02/07 07:48:51;;;;;;;2.28;1.10;;;1.50;99.90;;;;;;4945429;28;22162;-48
2022/02/07 07:51:33;;;;;;;1.15;1.15;;;1.50;99.90;;;;;;4943764;28;20664;-49
2022/02/07 07:54:25;;;;;;;1.60;1.30;;;1.50;99.90;;;;;;4947231;28;20106;-47
2022/02/07 08:02:15;;;;;;;1.42;1.33;;;1.50;99.90;;;;;;4947453;28;20098;-48
2022/02/07 08:04:43;;;;;;;2.60;1.50;;;1.50;99.90;;;;;;4943631;28;20465;-48
2022/02/07 08:12:05;;;;;;;2.58;1.58;;;1.60;99.90;;;;;;4947270;28;20034;-48
2022/02/07 08:14:35;;;;;;;1.58;1.48;;;1.60;99.90;;;;;;4947383;28;20158;-48
2022/02/07 08:17:02;;;;;;;4.28;2.05;;;1.60;99.90;;;;;;4946085;28;20117;-48
2022/02/07 08:19:29;;;;;;;1.88;1.02;;;1.60;99.90;;;;;;4945151;28;20090;-48
2022/02/07 08:21:57;;;;;;;6.95;1.40;;;1.60;99.90;;;;;;4948744;28;20421;-49
2022/02/07 08:24:23;;;;;;;3.03;1.55;;;1.70;99.90;;;;;;4946585;28;20027;-47
2022/02/07 08:26:52;;;;;;;1.30;1.20;;;1.60;99.90;;;;;;4944543;28;20425;-48
2022/02/07 08:29:17;;;;;;;2.45;1.65;;;1.70;99.90;;;;;;4949382;28;20636;-48
2022/02/07 08:31:43;;;;;;;2.10;0.93;;;1.70;99.90;;;;;;4944914;28;20059;-48
2022/02/07 08:34:09;;;;;;;4.88;1.67;;;1.70;99.90;;;;;;4947180;28;20031;-48
2022/02/07 08:36:34;;;;;;;2.35;1.10;;;1.70;99.90;;;;;;4944002;28;20122;-48
2022/02/07 08:39:01;;;;;;;2.58;1.20;;;1.70;99.90;;;;;;4945197;28;20837;-48
2022/02/07 08:41:28;;;;;;;3.90;1.70;;;1.70;99.90;;;;;;4943771;28;20038;-47
2022/02/07 08:43:54;;;;;;;1.95;1.20;;;1.70;99.90;;;;;;4950315;28;20030;-48
2022/02/07 08:46:20;;;;;;;2.63;1.17;;;1.70;99.90;;;;;;4943648;28;20685;-48
2022/02/07 08:48:46;;;;;;;4.35;1.10;;;1.80;99.90;;;;;;4947836;28;20048;-48
2022/02/07 08:51:11;;;;;;;7.00;1.10;;;1.80;99.90;;;;;;4945179;28;20493;-49
2022/02/07 08:53:41;;;;;;;1.55;1.05;;;1.70;99.90;;;;;;4945948;28;20039;-48
2022/02/07 08:56:08;;;;;;;0.80;0.80;;;1.80;99.90;;;;;;4943601;28;20023;-48
2022/02/07 08:58:36;;;;;;;2.60;1.00;;;1.80;99.90;;;;;;4945847;28;20106;-48
2022/02/07 09:11:16;;;;;;;1.45;1.10;;;1.90;99.90;;;;;;4941944;28;20031;-48
2022/02/07 09:13:44;;;;;;;2.75;1.13;;;1.80;99.90;;;;;;4944636;28;20040;-48
2022/02/07 09:16:29;;;;;;;2.55;1.30;;;1.90;99.90;;;;;;4947544;28;20400;-48
2022/02/07 09:18:58;;;;;;;1.90;1.38;;;1.90;99.90;;;;;;4946760;28;20031;-48
2022/02/07 09:21:25;;;;;;;8.40;1.58;;;1.90;99.90;;;;;;4938737;28;20034;-48
2022/02/07 09:23:51;;;;;;;3.20;1.52;;;1.90;99.90;;;;;;4943789;28;20039;-48
2022/02/07 09:26:17;;;;;;;3.42;1.50;;;1.90;99.90;;;;;;4943646;28;20432;-48
2022/02/07 09:28:43;;;;;;;2.00;1.80;;;1.90;99.90;;;;;;4948297;28;20051;-47
2022/02/07 09:31:11;;;;;;;4.68;2.17;;;2.00;99.90;;;;;;4941190;28;20058;-48
2022/02/07 09:33:37;;;;;;;3.47;1.20;;;2.00;99.90;;;;;;4946047;28;20039;-48
2022/02/07 09:36:04;;;;;;;1.38;1.20;;;2.00;99.90;;;;;;4941302;28;20050;-48
2022/02/07 09:38:32;;;;;;;6.68;1.55;;;1.90;99.90;;;;;;4941710;28;20428;-48
2022/02/07 09:40:58;;;;;;;1.02;1.02;;;2.00;99.90;;;;;;4944502;28;20409;-48
2022/02/07 09:43:29;;;;;;;5.82;1.23;;;2.00;99.90;;;;;;4946138;28;20089;-48
2022/02/07 09:46:04;;;;;;;1.60;1.50;;;2.00;99.90;;;;;;4946485;28;20056;-48
2022/02/07 09:48:34;;;;;;;4.10;1.30;;;2.00;99.90;;;;;;4939576;28;20055;-48
2022/02/07 09:50:59;;;;;;;2.05;1.23;;;2.10;99.90;;;;;;4946582;28;20054;-48
2022/02/07 09:53:27;;;;;;;4.13;1.50;;;2.10;99.90;;;;;;4943229;28;20647;-47
2022/02/07 09:55:54;;;;;;;1.63;1.20;;;2.10;99.90;;;;;;4947013;28;20027;-48
2022/02/07 09:58:20;;;;;;;1.48;1.38;;;2.10;99.90;;;;;;4943490;28;21310;-48
2022/02/07 10:00:45;;;;;;;1.80;1.55;;;2.10;99.90;;;;;;4944218;28;20672;-48
2022/02/07 10:03:27;;;;;;;5.75;1.40;;;2.20;99.90;;;;;;4946057;28;20058;-48
2022/02/07 10:05:58;;;;;;;3.50;1.00;;;2.20;99.90;;;;;;4942675;28;20035;-47
2022/02/07 10:08:38;;;;;;;6.47;1.38;;;2.20;99.90;;;;;;4946185;28;20118;-47
2022/02/07 10:19:04;;;;;;;2.13;1.45;;;2.20;99.90;;;;;;4940923;28;20028;-48
2022/02/07 10:38:21;;;;;;;1.27;0.90;;;2.20;99.90;;;;;;4941488;28;20035;-47
2022/02/07 10:46:12;;;;;;;3.25;1.55;;;2.20;99.90;;;;;;4939977;28;20035;-48
2022/02/07 10:48:38;;;;;;;1.63;1.10;;;2.20;99.90;;;;;;4942317;28;20047;-48
2022/02/07 10:51:33;;;;;;;1.20;1.10;;;2.20;99.90;;;;;;4942800;28;20046;-47
2022/02/07 10:54:02;;;;;;;1.92;1.02;;;2.20;99.90;;;;;;4947482;28;20082;-48
2022/02/07 10:56:36;;;;;;;2.55;1.20;;;2.30;99.90;;;;;;4945083;28;20027;-48
2022/02/07 10:59:06;;;;;;;3.70;1.30;;;2.30;99.90;;;;;;4944858;28;20026;-48
2022/02/07 11:04:13;;;;;;;2.60;1.25;;;2.30;99.90;;;;;;4942130;28;20039;-48
2022/02/07 11:06:40;;;;;;;4.95;1.08;;;2.30;99.90;;;;;;4946901;28;20035;-48
2022/02/07 11:24:21;;;;;;;2.60;1.30;;;2.30;99.90;;;;;;4944661;28;20063;-47
2022/02/07 11:26:50;;;;;;;3.15;2.20;;;2.30;99.90;;;;;;4943621;28;20043;-48
2022/02/07 11:29:35;;;;;;;4.25;1.35;;;2.30;99.90;;;;;;4940343;28;20114;-48
2022/02/07 11:32:00;;;;;;;1.63;1.20;;;2.30;99.90;;;;;;4941259;28;20504;-48
2022/02/07 11:34:41;;;;;;;2.08;1.88;;;2.30;99.90;;;;;;4944224;28;20031;-48
2022/02/07 11:37:19;;;;;;;0.88;0.88;;;2.30;99.90;;;;;;4946685;28;20481;-47
2022/02/07 11:39:48;;;;;;;3.10;1.58;;;2.30;99.90;;;;;;4952866;28;20500;-48
2022/02/07 11:42:14;;;;;;;6.75;1.50;;;2.30;99.90;;;;;;4948461;28;20397;-48
2022/02/07 11:44:43;;;;;;;6.30;1.30;;;2.20;99.90;;;;;;4941586;28;20082;-48
2022/02/07 11:47:22;;;;;;;5.78;1.73;;;2.30;99.90;;;;;;4945347;28;20027;-48
2022/02/07 11:49:51;;;;;;;2.05;1.00;;;2.30;99.90;;;;;;4952229;28;20126;-48
2022/02/07 11:52:27;;;;;;;4.18;1.52;;;2.30;99.90;;;;;;4945624;28;20046;-48
2022/02/07 11:55:06;;;;;;;1.60;1.17;;;2.30;99.90;;;;;;4959918;28;20038;-48
2022/02/07 11:57:37;;;;;;;1.05;1.05;;;2.30;99.90;;;;;;4946601;28;20032;-48
2022/02/07 12:00:17;;;;;;;4.40;2.08;;;2.30;99.90;;;;;;4944499;28;20110;-48
2022/02/07 12:02:50;;;;;;;2.53;1.77;;;2.30;99.90;;;;;;4946582;28;20035;-48
2022/02/07 12:05:17;;;;;;;1.63;1.08;;;2.30;99.90;;;;;;4950097;28;20035;-48
2022/02/07 12:07:57;;;;;;;3.70;1.40;;;2.40;99.90;;;;;;4948840;28;20117;-49
2022/02/07 12:10:28;;;;;;;4.03;1.38;;;2.40;99.90;;;;;;4946181;28;20690;-48
2022/02/07 12:12:57;;;;;;;5.25;1.20;;;2.40;99.90;;;;;;4947483;28;20062;-48
2022/02/07 12:15:45;;;;;;;8.90;1.67;;;2.40;99.90;;;;;;4946386;28;20031;-48
2022/02/07 12:18:13;;;;;;;1.35;1.35;;;2.50;99.90;;;;;;4944180;28;20042;-50
2022/02/07 12:20:43;;;;;;;1.75;0.95;;;2.50;99.90;;;;;;4946039;28;20548;-48
2022/02/07 12:23:38;;;;;;;1.52;1.00;;;2.50;99.90;;;;;;4946444;28;20031;-48
2022/02/07 12:26:12;;;;;;;2.67;1.25;;;2.50;99.90;;;;;;4945701;28;20094;-50
2022/02/07 12:31:26;;;;;;;2.60;1.88;;;2.60;99.90;;;;;;4944562;28;20039;-48
2022/02/07 12:34:03;;;;;;;1.65;1.02;;;2.60;99.90;;;;;;4944799;28;20440;-48
2022/02/07 12:36:32;;;;;;;2.28;1.27;;;2.60;99.90;;;;;;4942119;28;20027;-48
2022/02/07 12:38:59;;;;;;;6.97;1.52;;;2.60;99.90;;;;;;4944086;28;20373;-47
2022/02/07 12:41:26;;;;;;;1.85;1.33;;;2.60;99.90;;;;;;4944887;28;20073;-48
2022/02/07 12:43:54;;;;;;;4.25;1.73;;;2.60;99.90;;;;;;4953742;28;20029;-48
2022/02/07 12:46:21;;;;;;;;;;;2.60;99.90;;;;;;4944534;28;20047;-47
2022/02/07 12:48:58;;;;;;;3.78;1.48;;;2.60;99.90;;;;;;4946220;28;19976;-47
2022/02/07 12:51:30;;;;;;;4.65;1.55;;;2.60;99.90;;;;;;4949216;28;20031;-48
2022/02/07 12:53:57;;;;;;;1.75;1.30;;;2.70;99.90;;;;;;4947856;28;20034;-48
2022/02/07 12:56:26;;;;;;;6.53;1.33;;;2.80;99.90;;;;;;4948115;28;20051;-47
2022/02/07 12:58:52;;;;;;;1.10;1.10;;;2.80;99.90;;;;;;4943146;28;20484;-49
2022/02/07 13:01:27;;;;;;;6.28;1.73;;;2.80;99.90;;;;;;4948125;28;20027;-47
2022/02/07 13:03:59;;;;;;;2.72;1.42;;;2.80;99.90;;;;;;4944108;28;20089;-48
2022/02/07 13:06:43;;;;;;;2.97;2.05;;;2.80;99.90;;;;;;4945047;28;20043;-48
2022/02/07 13:09:17;;;;;;;3.22;2.20;;;2.80;99.90;;;;;;4942097;28;20031;-49
2022/02/07 13:12:01;;;;;;;4.68;1.60;;;2.80;99.90;;;;;;4945893;28;20038;-48
2022/02/07 13:14:27;;;;;;;3.17;1.27;;;2.80;99.90;;;;;;4940925;28;20043;-48
2022/02/07 13:16:54;;;;;;;1.67;1.33;;;2.80;99.90;;;;;;4948401;28;20023;-48
2022/02/07 13:19:21;;;;;;;6.70;1.52;;;2.70;99.90;;;;;;4945665;28;20401;-48
2022/02/07 13:21:51;;;;;;;6.75;2.47;;;2.70;99.90;;;;;;4946231;28;20024;-48
2022/02/07 13:24:23;;;;;;;1.67;1.42;;;2.70;99.90;;;;;;4942422;28;20042;-48
2022/02/07 13:26:51;;;;;;;4.00;1.50;;;2.70;99.90;;;;;;4946172;28;20110;-48
2022/02/07 13:29:21;;;;;;;5.32;1.70;;;2.80;99.90;;;;;;4944178;28;20740;-48
2022/02/07 13:32:05;;;;;;;3.10;1.33;;;2.80;99.90;;;;;;4945766;28;20072;-48
2022/02/07 13:34:36;;;;;;;4.80;1.40;;;2.80;99.90;;;;;;4947205;28;20031;-49
2022/02/07 13:37:29;;;;;;;3.88;1.67;;;2.80;99.90;;;;;;4946883;28;20666;-48
2022/02/07 13:40:13;;;;;;;2.28;1.20;;;2.80;99.90;;;;;;4941686;28;20496;-48
2022/02/07 13:42:40;;;;;;;3.58;1.30;;;2.90;99.90;;;;;;4941055;28;20374;-48
2022/02/07 13:45:11;;;;;;;1.65;1.55;;;2.80;99.90;;;;;;4948095;28;20039;-49
2022/02/07 13:47:40;;;;;;;4.13;2.10;;;2.80;99.90;;;;;;4945808;28;20421;-48
2022/02/07 13:50:12;;;;;;;3.38;1.70;;;2.90;99.90;;;;;;4947934;28;20437;-48
2022/02/07 13:52:40;;;;;;;2.03;1.40;;;2.90;99.90;;;;;;4941523;28;20046;-48
2022/02/07 13:55:18;;;;;;;4.47;1.42;;;2.90;99.90;;;;;;4942396;28;20331;-48
2022/02/07 13:57:59;;;;;;;2.25;1.65;;;3.00;99.90;;;;;;4940637;28;20046;-48
2022/02/07 14:00:35;;;;;;;2.88;1.85;;;3.00;99.90;;;;;;4944934;28;20094;-48
2022/02/07 14:03:06;;;;;;;4.78;1.85;;;3.00;99.90;;;;;;4945614;28;20043;-48
2022/02/07 14:05:38;;;;;;;2.03;1.60;;;3.10;99.90;;;;;;4947187;28;20023;-48
2022/02/07 14:08:05;;;;;;;2.35;1.55;;;3.10;99.90;;;;;;4944528;28;20023;-49
2022/02/07 14:10:35;;;;;;;1.80;1.38;;;3.20;99.90;;;;;;4942068;28;20031;-48
2022/02/07 14:13:01;;;;;;;2.80;1.70;;;3.30;99.90;;;;;;4940678;28;21093;-48
2022/02/07 14:15:26;;;;;;;3.13;1.50;;;3.40;99.90;;;;;;4940631;28;20046;-48
2022/02/07 14:17:52;;;;;;;8.27;2.17;;;3.40;99.90;;;;;;4943956;28;20480;-48
2022/02/07 14:20:23;;;;;;;2.15;1.63;;;3.30;99.90;;;;;;4945898;28;20027;-48
2022/02/07 14:22:49;;;;;;;2.83;1.80;;;3.30;99.90;;;;;;4944733;28;20034;-48
2022/02/07 14:25:15;;;;;;;4.18;1.67;;;3.30;99.90;;;;;;4943339;28;20031;-48
2022/02/07 14:27:41;;;;;;;3.72;1.48;;;3.30;99.90;;;;;;4941885;28;20031;-47
2022/02/07 14:30:08;;;;;;;2.28;1.60;;;3.30;99.90;;;;;;4943779;28;20034;-48
2022/02/07 14:32:33;;;;;;;3.60;1.40;;;3.40;99.90;;;;;;4950392;28;20424;-48
2022/02/07 14:34:59;;;;;;;5.18;1.77;;;3.40;99.90;;;;;;4947593;28;20344;-48
2022/02/07 14:37:25;;;;;;;2.70;1.70;;;3.40;99.90;;;;;;4946654;28;20090;-48
2022/02/07 14:39:50;;;;;;;4.75;1.63;;;3.50;99.90;;;;;;4946241;28;20035;-48
2022/02/07 14:42:16;;;;;;;1.73;1.50;;;3.50;99.90;;;;;;4947450;28;20031;-48
2022/02/07 14:50:17;;;;;;;2.83;1.50;;;3.40;99.90;;;;;;4950888;28;20047;-48
2022/02/07 14:52:43;;;;;;;1.48;1.23;;;3.30;99.90;;;;;;4940421;28;20062;-48
2022/02/07 14:55:09;;;;;;;2.92;1.70;;;3.20;99.90;;;;;;4948762;28;20082;-48
2022/02/07 14:57:36;;;;;;;4.60;1.52;;;3.30;99.90;;;;;;4945333;28;20019;-48
2022/02/07 15:00:05;;;;;;;2.10;1.25;;;3.20;99.90;;;;;;4948127;28;20544;-48
2022/02/07 15:02:32;;;;;;;1.15;1.10;;;3.20;99.90;;;;;;4937433;28;20523;-48
2022/02/07 15:05:00;;;;;;;3.30;1.33;;;3.10;99.90;;;;;;4945418;28;20037;-48
2022/02/07 15:07:27;;;;;;;1.40;1.30;;;3.10;99.90;;;;;;4948191;28;20051;-48
2022/02/07 15:09:53;;;;;;;3.05;1.50;;;3.10;99.90;;;;;;4945938;28;20047;-48
2022/02/07 15:12:19;;;;;;;1.45;1.35;;;3.10;99.90;;;;;;4944883;28;20035;-49
2022/02/07 15:14:49;;;;;;;1.30;1.20;;;3.10;99.90;;;;;;4950099;28;20031;-48
2022/02/07 15:17:16;;;;;;;5.30;1.52;;;3.10;99.90;;;;;;4949720;28;20473;-48
2022/02/07 15:19:42;;;;;;;4.40;1.45;;;3.00;99.90;;;;;;4947280;28;20599;-48
2022/02/07 15:22:08;;;;;;;1.73;1.60;;;3.00;99.90;;;;;;4949094;28;20481;-48
2022/02/07 15:24:35;;;;;;;3.05;1.60;;;2.90;99.90;;;;;;4945819;28;20099;-47
2022/02/07 15:27:02;;;;;;;1.33;1.23;;;2.90;99.90;;;;;;4947108;28;20027;-48
2022/02/07 15:29:27;;;;;;;1.60;1.50;;;2.80;99.90;;;;;;4948888;28;20074;-48
2022/02/07 15:31:58;;;;;;;4.78;1.75;;;2.80;99.90;;;;;;4947462;28;20512;-48
2022/02/07 15:34:24;;;;;;;1.50;1.30;;;2.70;99.90;;;;;;4947030;28;20583;-47
2022/02/07 15:36:49;;;;;;;3.60;1.40;;;2.80;99.90;;;;;;4951279;28;20034;-48
2022/02/07 15:39:15;;;;;;;1.45;1.10;;;2.70;99.90;;;;;;4953288;28;20030;-48
2022/02/07 15:41:43;;;;;;;2.05;1.42;;;2.70;99.90;;;;;;4950269;28;20604;-48
2022/02/07 15:44:10;;;;;;;2.05;1.80;;;2.80;99.90;;;;;;4949431;28;20484;-48
2022/02/07 15:46:36;;;;;;;1.13;1.13;;;2.90;99.90;;;;;;4951916;28;20227;-49
2022/02/07 15:49:02;;;;;;;4.55;1.33;;;2.80;99.90;;;;;;4947783;28;20135;-48
2022/02/07 15:51:28;;;;;;;2.65;1.35;;;2.80;99.90;;;;;;4952570;28;20082;-48